createdAt,value
2022-07-29T00:00:20.163Z,31.02
2022-07-29T00:00:50.281Z,31.02
2022-07-29T00:01:20.402Z,31.03
2022-07-29T00:01:50.410Z,31.02
2022-07-29T00:02:20.403Z,31.02
2022-07-29T00:02:50.577Z,31.01
2022-07-29T00:03:20.595Z,31.01
2022-07-29T00:03:50.649Z,31.01
2022-07-29T00:04:21.406Z,31.01
2022-07-29T00:04:50.762Z,31.02
2022-07-29T00:05:20.769Z,30.99
2022-07-29T00:05:50.976Z,31.02
2022-07-29T00:06:20.936Z,31.02
2022-07-29T00:06:51.094Z,31.02
2022-07-29T00:07:21.090Z,31.01
2022-07-29T00:07:51.087Z,30.99
2022-07-29T00:08:21.089Z,31.01
2022-07-29T00:08:51.199Z,31.01
2022-07-29T00:09:21.194Z,31.01
2022-07-29T00:09:52.678Z,31.01
2022-07-29T00:10:21.358Z,31.02
2022-07-29T00:10:51.479Z,31.01
2022-07-29T00:11:21.474Z,31.02
2022-07-29T00:11:51.621Z,31.02
2022-07-29T00:12:26.166Z,31.01
2022-07-29T00:12:51.659Z,30.99
2022-07-29T00:13:32.093Z,31.01
2022-07-29T00:13:51.641Z,31.01
2022-07-29T00:14:21.638Z,30.99
2022-07-29T00:14:51.755Z,31.01
2022-07-29T00:15:21.750Z,30.99
2022-07-29T00:15:51.872Z,31.01
2022-07-29T00:16:22.003Z,31.01
2022-07-29T00:16:52.181Z,31.01
2022-07-29T00:17:22.222Z,30.99
2022-07-29T00:17:52.216Z,31.02
2022-07-29T00:18:22.329Z,30.99
2022-07-29T00:18:52.327Z,31.01
2022-07-29T00:19:22.322Z,31.01
2022-07-29T00:19:52.373Z,31.02
2022-07-29T00:20:22.482Z,30.99
2022-07-29T00:20:52.604Z,31.02
2022-07-29T00:21:22.716Z,31.01
2022-07-29T00:21:52.839Z,31.02
2022-07-29T00:22:22.861Z,31.01
2022-07-29T00:22:52.853Z,31.02
2022-07-29T00:23:22.847Z,31.01
2022-07-29T00:23:52.843Z,31.02
2022-07-29T00:24:22.961Z,30.99
2022-07-29T00:24:53.074Z,30.98
2022-07-29T00:25:23.193Z,31.03
2022-07-29T00:25:53.317Z,31.03
2022-07-29T00:26:23.432Z,31.02
2022-07-29T00:26:53.552Z,31.01
2022-07-29T00:27:23.551Z,30.98
2022-07-29T00:27:53.686Z,31.01
2022-07-29T00:28:23.676Z,30.98
2022-07-29T00:29:06.331Z,30.99
2022-07-29T00:29:39.161Z,31.02
2022-07-29T00:29:53.709Z,30.99
2022-07-29T00:30:23.799Z,30.98
2022-07-29T00:30:53.879Z,30.99
2022-07-29T00:31:24.037Z,30.99
2022-07-29T00:31:54.130Z,31.01
2022-07-29T00:32:24.121Z,31.01
2022-07-29T00:32:54.196Z,31.01
2022-07-29T00:33:24.278Z,31.01
2022-07-29T00:33:54.360Z,30.99
2022-07-29T00:34:24.437Z,31.01
2022-07-29T00:34:54.516Z,30.99
2022-07-29T00:35:24.599Z,30.98
2022-07-29T00:35:54.679Z,30.96
2022-07-29T00:36:24.681Z,30.99
2022-07-29T00:36:54.764Z,30.98
2022-07-29T00:37:24.848Z,31.02
2022-07-29T00:37:54.929Z,31.01
2022-07-29T00:38:25.014Z,30.99
2022-07-29T00:38:55.099Z,31.01
2022-07-29T00:39:25.178Z,30.99
2022-07-29T00:39:55.189Z,30.99
2022-07-29T00:40:25.302Z,30.99
2022-07-29T00:40:55.420Z,31.01
2022-07-29T00:41:25.538Z,30.99
2022-07-29T00:41:55.657Z,30.98
2022-07-29T00:42:25.780Z,30.99
2022-07-29T00:42:55.900Z,30.99
2022-07-29T00:43:25.892Z,30.99
2022-07-29T00:43:56.014Z,30.95
2022-07-29T00:44:26.009Z,30.99
2022-07-29T00:44:56.007Z,31.01
2022-07-29T00:45:26.005Z,30.99
2022-07-29T00:45:56.122Z,30.96
2022-07-29T00:46:26.177Z,30.99
2022-07-29T00:46:56.221Z,30.95
2022-07-29T00:47:26.250Z,31.01
2022-07-29T00:47:56.247Z,30.99
2022-07-29T00:48:26.243Z,30.98
2022-07-29T00:48:56.398Z,31.01
2022-07-29T00:49:26.411Z,30.96
2022-07-29T00:49:56.390Z,30.96
2022-07-29T00:50:26.503Z,30.99
2022-07-29T00:50:56.499Z,30.99
2022-07-29T00:51:26.619Z,30.98
2022-07-29T00:51:56.631Z,30.98
2022-07-29T00:52:26.712Z,30.96
2022-07-29T00:52:56.712Z,31.01
2022-07-29T00:53:26.831Z,30.96
2022-07-29T00:53:56.918Z,31.01
2022-07-29T00:54:26.917Z,30.96
2022-07-29T00:54:56.911Z,30.98
2022-07-29T00:55:26.908Z,30.99
2022-07-29T00:55:56.904Z,30.98
2022-07-29T00:56:27.022Z,30.99
2022-07-29T00:56:57.021Z,30.99
2022-07-29T00:57:27.018Z,30.96
2022-07-29T00:57:57.135Z,30.99
2022-07-29T00:58:27.140Z,30.99
2022-07-29T00:58:57.131Z,30.98
2022-07-29T00:59:27.130Z,30.96
2022-07-29T00:59:57.148Z,30.99
2022-07-29T01:00:27.181Z,30.99
2022-07-29T01:00:57.284Z,30.99
2022-07-29T01:01:27.327Z,30.98
2022-07-29T01:01:57.357Z,30.99
2022-07-29T01:02:27.445Z,30.99
2022-07-29T01:02:57.431Z,30.96
2022-07-29T01:03:27.430Z,30.96
2022-07-29T01:03:57.555Z,30.98
2022-07-29T01:04:27.544Z,30.98
2022-07-29T01:04:57.542Z,31.01
2022-07-29T01:05:50.106Z,30.98
2022-07-29T01:05:57.555Z,30.96
2022-07-29T01:06:27.552Z,30.98
2022-07-29T01:06:57.694Z,30.99
2022-07-29T01:07:27.674Z,30.98
2022-07-29T01:07:57.672Z,30.96
2022-07-29T01:08:27.667Z,30.99
2022-07-29T01:08:57.784Z,30.99
2022-07-29T01:09:43.076Z,30.96
2022-07-29T01:09:57.797Z,30.96
2022-07-29T01:10:27.914Z,30.96
2022-07-29T01:10:57.911Z,30.96
2022-07-29T01:11:27.905Z,30.96
2022-07-29T01:11:58.025Z,30.99
2022-07-29T01:12:28.042Z,30.96
2022-07-29T01:12:58.019Z,30.98
2022-07-29T01:13:28.135Z,30.98
2022-07-29T01:13:58.131Z,30.96
2022-07-29T01:14:28.125Z,30.98
2022-07-29T01:14:58.250Z,30.98
2022-07-29T01:15:28.243Z,30.95
2022-07-29T01:15:58.285Z,30.96
2022-07-29T01:16:28.397Z,30.96
2022-07-29T01:16:58.404Z,30.98
2022-07-29T01:17:28.510Z,30.98
2022-07-29T01:17:58.507Z,30.96
2022-07-29T01:18:28.496Z,30.95
2022-07-29T01:18:58.493Z,30.96
2022-07-29T01:19:28.610Z,30.96
2022-07-29T01:19:58.729Z,30.96
2022-07-29T01:20:31.604Z,30.98
2022-07-29T01:20:58.838Z,30.96
2022-07-29T01:21:28.953Z,30.96
2022-07-29T01:21:58.948Z,30.96
2022-07-29T01:22:29.069Z,30.96
2022-07-29T01:22:59.183Z,30.96
2022-07-29T01:23:29.301Z,30.95
2022-07-29T01:23:59.300Z,30.96
2022-07-29T01:24:29.416Z,30.96
2022-07-29T01:24:59.412Z,30.96
2022-07-29T01:25:29.409Z,30.98
2022-07-29T01:25:59.528Z,30.96
2022-07-29T01:26:29.646Z,30.96
2022-07-29T01:26:59.728Z,30.96
2022-07-29T01:27:29.863Z,30.96
2022-07-29T01:27:59.883Z,30.95
2022-07-29T01:28:29.886Z,30.95
2022-07-29T01:28:59.883Z,30.95
2022-07-29T01:29:36.166Z,30.95
2022-07-29T01:30:00.006Z,30.96
2022-07-29T01:30:30.093Z,30.95
2022-07-29T01:31:00.241Z,30.96
2022-07-29T01:31:30.352Z,30.98
2022-07-29T01:32:00.847Z,30.95
2022-07-29T01:32:30.502Z,30.94
2022-07-29T01:33:00.460Z,30.94
2022-07-29T01:33:30.543Z,30.95
2022-07-29T01:34:00.628Z,30.96
2022-07-29T01:34:30.708Z,30.95
2022-07-29T01:35:00.788Z,30.95
2022-07-29T01:35:30.873Z,30.94
2022-07-29T01:36:00.957Z,30.95
2022-07-29T01:36:31.031Z,30.95
2022-07-29T01:37:01.112Z,30.98
2022-07-29T01:37:31.213Z,30.94
2022-07-29T01:38:01.290Z,30.95
2022-07-29T01:38:31.367Z,30.96
2022-07-29T01:39:01.457Z,30.98
2022-07-29T01:39:31.545Z,30.94
2022-07-29T01:40:01.624Z,30.95
2022-07-29T01:40:31.619Z,30.92
2022-07-29T01:41:01.738Z,30.92
2022-07-29T01:41:31.858Z,30.95
2022-07-29T01:42:01.977Z,30.94
2022-07-29T01:42:32.008Z,30.95
2022-07-29T01:43:02.003Z,30.92
2022-07-29T01:43:31.997Z,30.95
2022-07-29T01:44:01.991Z,30.94
2022-07-29T01:44:32.107Z,30.94
2022-07-29T01:45:02.100Z,30.95
2022-07-29T01:45:32.103Z,30.94
2022-07-29T01:46:02.214Z,30.94
2022-07-29T01:46:32.287Z,30.96
2022-07-29T01:47:02.352Z,30.94
2022-07-29T01:47:32.332Z,30.92
2022-07-29T01:48:02.347Z,30.95
2022-07-29T01:48:32.343Z,30.94
2022-07-29T01:49:02.540Z,30.96
2022-07-29T01:49:32.512Z,30.95
2022-07-29T01:50:02.525Z,30.95
2022-07-29T01:50:32.623Z,30.95
2022-07-29T01:51:02.749Z,30.94
2022-07-29T01:51:32.861Z,30.95
2022-07-29T01:52:02.976Z,30.92
2022-07-29T01:52:33.139Z,30.94
2022-07-29T01:53:03.142Z,30.95
2022-07-29T01:53:34.873Z,30.94
2022-07-29T01:54:03.144Z,30.94
2022-07-29T01:54:33.143Z,30.94
2022-07-29T01:55:03.134Z,30.95
2022-07-29T01:55:33.251Z,30.92
2022-07-29T01:56:03.244Z,30.94
2022-07-29T01:56:33.364Z,30.94
2022-07-29T01:57:03.482Z,30.92
2022-07-29T01:57:33.498Z,30.94
2022-07-29T01:58:03.493Z,30.94
2022-07-29T01:58:33.609Z,30.95
2022-07-29T01:59:03.724Z,30.92
2022-07-29T01:59:33.719Z,30.94
2022-07-29T02:00:03.735Z,30.94
2022-07-29T02:00:33.839Z,30.94
2022-07-29T02:01:03.829Z,30.94
2022-07-29T02:01:34.133Z,30.95
2022-07-29T02:02:04.138Z,30.91
2022-07-29T02:02:34.036Z,30.92
2022-07-29T02:03:04.044Z,30.92
2022-07-29T02:03:34.033Z,30.94
2022-07-29T02:04:04.031Z,30.92
2022-07-29T02:04:34.179Z,30.95
2022-07-29T02:05:04.227Z,30.91
2022-07-29T02:05:34.233Z,30.92
2022-07-29T02:06:04.353Z,30.94
2022-07-29T02:06:34.467Z,30.94
2022-07-29T02:07:04.459Z,30.94
2022-07-29T02:07:34.642Z,30.92
2022-07-29T02:08:04.641Z,30.94
2022-07-29T02:08:34.629Z,30.92
2022-07-29T02:09:04.621Z,30.92
2022-07-29T02:09:34.668Z,30.92
2022-07-29T02:10:04.788Z,30.94
2022-07-29T02:10:34.783Z,30.91
2022-07-29T02:11:04.901Z,30.95
2022-07-29T02:11:34.903Z,30.89
2022-07-29T02:12:04.898Z,30.94
2022-07-29T02:12:35.017Z,30.92
2022-07-29T02:13:05.134Z,30.92
2022-07-29T02:13:35.128Z,30.91
2022-07-29T02:14:05.247Z,30.91
2022-07-29T02:14:35.241Z,30.92
2022-07-29T02:15:05.361Z,30.92
2022-07-29T02:15:35.477Z,30.92
2022-07-29T02:16:05.628Z,30.91
2022-07-29T02:16:35.707Z,30.92
2022-07-29T02:17:05.695Z,30.92
2022-07-29T02:17:35.804Z,30.91
2022-07-29T02:18:05.836Z,30.94
2022-07-29T02:18:35.829Z,30.91
2022-07-29T02:19:05.944Z,30.94
2022-07-29T02:19:35.940Z,30.92
2022-07-29T02:20:05.934Z,30.91
2022-07-29T02:20:36.053Z,30.91
2022-07-29T02:21:06.169Z,30.92
2022-07-29T02:21:36.195Z,30.91
2022-07-29T02:22:06.302Z,30.91
2022-07-29T02:22:36.421Z,30.92
2022-07-29T02:23:06.423Z,30.91
2022-07-29T02:23:45.214Z,30.89
2022-07-29T02:24:06.430Z,30.92
2022-07-29T02:24:36.427Z,30.91
2022-07-29T02:25:06.545Z,30.91
2022-07-29T02:25:37.595Z,30.89
2022-07-29T02:26:06.625Z,30.91
2022-07-29T02:26:36.624Z,30.91
2022-07-29T02:27:06.739Z,30.92
2022-07-29T02:27:36.734Z,30.91
2022-07-29T02:28:06.873Z,30.89
2022-07-29T02:28:36.851Z,30.92
2022-07-29T02:29:06.848Z,30.91
2022-07-29T02:29:36.858Z,30.91
2022-07-29T02:30:06.955Z,30.92
2022-07-29T02:30:37.035Z,30.94
2022-07-29T02:31:07.150Z,30.92
2022-07-29T02:31:37.323Z,30.92
2022-07-29T02:32:07.278Z,30.91
2022-07-29T02:32:37.307Z,30.89
2022-07-29T02:33:07.367Z,30.94
2022-07-29T02:33:37.447Z,30.89
2022-07-29T02:34:07.529Z,30.89
2022-07-29T02:34:37.610Z,30.92
2022-07-29T02:35:07.686Z,30.89
2022-07-29T02:35:37.771Z,30.91
2022-07-29T02:36:07.853Z,30.91
2022-07-29T02:36:37.938Z,30.92
2022-07-29T02:37:08.019Z,30.89
2022-07-29T02:37:38.106Z,30.89
2022-07-29T02:38:08.193Z,30.89
2022-07-29T02:38:38.273Z,30.89
2022-07-29T02:39:10.599Z,30.92
2022-07-29T02:39:38.416Z,30.92
2022-07-29T02:40:08.505Z,30.91
2022-07-29T02:40:38.625Z,30.92
2022-07-29T02:41:08.741Z,30.91
2022-07-29T02:41:38.859Z,30.89
2022-07-29T02:42:08.853Z,30.89
2022-07-29T02:42:38.978Z,30.89
2022-07-29T02:43:09.064Z,30.89
2022-07-29T02:43:39.056Z,30.91
2022-07-29T02:44:09.051Z,30.89
2022-07-29T02:44:39.166Z,30.89
2022-07-29T02:45:09.158Z,30.88
2022-07-29T02:45:39.156Z,30.89
2022-07-29T02:46:12.705Z,30.89
2022-07-29T02:46:39.330Z,30.88
2022-07-29T02:47:09.306Z,30.91
2022-07-29T02:47:41.373Z,30.89
2022-07-29T02:48:09.536Z,30.88
2022-07-29T02:48:39.563Z,30.89
2022-07-29T02:49:09.648Z,30.88
2022-07-29T02:49:39.559Z,30.89
2022-07-29T02:50:09.659Z,30.92
2022-07-29T02:50:39.778Z,30.89
2022-07-29T02:51:09.895Z,30.88
2022-07-29T02:51:41.427Z,30.91
2022-07-29T02:52:10.066Z,30.89
2022-07-29T02:52:40.183Z,30.89
2022-07-29T02:53:10.183Z,30.89
2022-07-29T02:53:40.180Z,30.91
2022-07-29T02:54:10.296Z,30.88
2022-07-29T02:54:40.415Z,30.88
2022-07-29T02:55:10.410Z,30.88
2022-07-29T02:55:40.529Z,30.91
2022-07-29T02:56:10.524Z,30.88
2022-07-29T02:56:40.516Z,30.88
2022-07-29T02:57:10.509Z,30.89
2022-07-29T02:57:54.549Z,30.91
2022-07-29T02:58:10.657Z,30.88
2022-07-29T02:58:40.770Z,30.86
2022-07-29T02:59:10.765Z,30.89
2022-07-29T02:59:40.773Z,30.88
2022-07-29T03:00:10.889Z,30.86
2022-07-29T03:00:40.966Z,30.88
2022-07-29T03:01:11.023Z,30.88
2022-07-29T03:01:41.129Z,30.88
2022-07-29T03:02:11.133Z,30.89
2022-07-29T03:02:41.114Z,30.89
2022-07-29T03:03:11.110Z,30.89
2022-07-29T03:03:41.113Z,30.89
2022-07-29T03:04:11.311Z,30.89
2022-07-29T03:04:41.300Z,30.89
2022-07-29T03:05:11.360Z,30.91
2022-07-29T03:05:41.366Z,30.86
2022-07-29T03:06:28.761Z,30.88
2022-07-29T03:06:41.373Z,30.89
2022-07-29T03:07:11.367Z,30.89
2022-07-29T03:07:41.363Z,30.89
2022-07-29T03:08:11.367Z,30.88
2022-07-29T03:08:41.365Z,30.88
2022-07-29T03:09:13.557Z,30.89
2022-07-29T03:09:41.543Z,30.88
2022-07-29T03:10:13.659Z,30.86
2022-07-29T03:10:41.689Z,30.88
2022-07-29T03:11:11.687Z,30.91
2022-07-29T03:11:49.627Z,30.86
2022-07-29T03:12:11.701Z,30.86
2022-07-29T03:12:41.703Z,30.88
2022-07-29T03:13:11.823Z,30.86
2022-07-29T03:13:41.814Z,30.85
2022-07-29T03:14:11.821Z,30.88
2022-07-29T03:14:41.869Z,30.88
2022-07-29T03:15:11.859Z,30.88
2022-07-29T03:15:41.956Z,30.86
2022-07-29T03:16:12.073Z,30.88
2022-07-29T03:16:42.019Z,30.85
2022-07-29T03:17:12.019Z,30.88
2022-07-29T03:17:42.017Z,30.89
2022-07-29T03:18:12.142Z,30.89
2022-07-29T03:18:42.139Z,30.91
2022-07-29T03:19:12.135Z,30.89
2022-07-29T03:19:42.255Z,30.89
2022-07-29T03:20:12.251Z,30.88
2022-07-29T03:20:42.251Z,30.86
2022-07-29T03:21:12.247Z,30.88
2022-07-29T03:21:42.241Z,30.86
2022-07-29T03:22:12.237Z,30.86
2022-07-29T03:22:42.381Z,30.88
2022-07-29T03:23:12.365Z,30.85
2022-07-29T03:23:42.370Z,30.85
2022-07-29T03:24:12.495Z,30.89
2022-07-29T03:24:42.444Z,30.85
2022-07-29T03:25:12.443Z,30.86
2022-07-29T03:25:42.435Z,30.86
2022-07-29T03:26:12.426Z,30.86
2022-07-29T03:26:42.549Z,30.85
2022-07-29T03:27:12.547Z,30.85
2022-07-29T03:27:42.553Z,30.85
2022-07-29T03:28:12.546Z,30.86
2022-07-29T03:28:42.545Z,30.85
2022-07-29T03:29:13.427Z,30.85
2022-07-29T03:29:46.305Z,30.88
2022-07-29T03:30:12.609Z,30.88
2022-07-29T03:30:42.725Z,30.89
2022-07-29T03:31:12.873Z,30.88
2022-07-29T03:31:43.751Z,30.86
2022-07-29T03:32:12.844Z,30.85
2022-07-29T03:32:42.965Z,30.88
2022-07-29T03:33:13.487Z,30.85
2022-07-29T03:33:42.981Z,30.85
2022-07-29T03:34:13.520Z,30.85
2022-07-29T03:34:43.112Z,30.82
2022-07-29T03:35:13.194Z,30.85
2022-07-29T03:35:43.317Z,30.86
2022-07-29T03:36:13.354Z,30.84
2022-07-29T03:36:43.436Z,30.84
2022-07-29T03:37:13.519Z,30.82
2022-07-29T03:37:43.613Z,30.86
2022-07-29T03:38:13.694Z,30.82
2022-07-29T03:38:43.782Z,30.85
2022-07-29T03:39:13.863Z,30.85
2022-07-29T03:39:43.944Z,30.85
2022-07-29T03:40:14.048Z,30.85
2022-07-29T03:40:44.048Z,30.85
2022-07-29T03:41:14.163Z,30.84
2022-07-29T03:41:44.163Z,30.86
2022-07-29T03:42:14.163Z,30.85
2022-07-29T03:42:44.280Z,30.82
2022-07-29T03:43:14.276Z,30.84
2022-07-29T03:43:49.062Z,30.85
2022-07-29T03:44:14.722Z,30.85
2022-07-29T03:44:44.365Z,30.85
2022-07-29T03:45:14.360Z,30.85
2022-07-29T03:45:44.356Z,30.84
2022-07-29T03:46:14.448Z,30.86
2022-07-29T03:46:44.496Z,30.84
2022-07-29T03:47:14.482Z,30.84
2022-07-29T03:47:50.212Z,30.82
2022-07-29T03:48:14.635Z,30.85
2022-07-29T03:48:44.713Z,30.82
2022-07-29T03:49:14.768Z,30.85
2022-07-29T03:49:44.792Z,30.86
2022-07-29T03:50:14.799Z,30.85
2022-07-29T03:50:44.796Z,30.82
2022-07-29T03:51:14.791Z,30.86
2022-07-29T03:51:44.913Z,30.84
2022-07-29T03:52:15.030Z,30.82
2022-07-29T03:52:45.362Z,30.82
2022-07-29T03:53:15.214Z,30.81
2022-07-29T03:53:45.213Z,30.85
2022-07-29T03:54:15.825Z,30.84
2022-07-29T03:54:45.437Z,30.82
2022-07-29T03:55:15.435Z,30.82
2022-07-29T03:55:45.556Z,30.84
2022-07-29T03:56:15.548Z,30.84
2022-07-29T03:56:45.540Z,30.82
2022-07-29T03:57:15.662Z,30.82
2022-07-29T03:57:45.670Z,30.82
2022-07-29T03:58:15.665Z,30.84
2022-07-29T03:58:45.786Z,30.84
2022-07-29T03:59:15.907Z,30.84
2022-07-29T03:59:45.902Z,30.85
2022-07-29T04:00:15.900Z,30.82
2022-07-29T04:00:46.016Z,30.84
2022-07-29T04:01:16.040Z,30.81
2022-07-29T04:01:46.142Z,30.82
2022-07-29T04:02:21.515Z,30.84
2022-07-29T04:02:46.175Z,30.82
2022-07-29T04:03:16.297Z,30.82
2022-07-29T04:03:46.268Z,30.81
2022-07-29T04:04:16.579Z,30.82
2022-07-29T04:04:46.178Z,30.81
2022-07-29T04:05:16.297Z,30.81
2022-07-29T04:05:46.294Z,30.82
2022-07-29T04:06:16.292Z,30.81
2022-07-29T04:06:46.289Z,30.84
2022-07-29T04:07:16.365Z,30.79
2022-07-29T04:07:46.363Z,30.79
2022-07-29T04:08:16.358Z,30.82
2022-07-29T04:08:46.350Z,30.82
2022-07-29T04:09:16.485Z,30.81
2022-07-29T04:09:46.466Z,30.82
2022-07-29T04:10:16.589Z,30.82
2022-07-29T04:10:46.585Z,30.82
2022-07-29T04:11:16.578Z,30.84
2022-07-29T04:11:56.960Z,30.81
2022-07-29T04:12:16.713Z,30.81
2022-07-29T04:12:46.713Z,30.81
2022-07-29T04:13:16.829Z,30.82
2022-07-29T04:13:46.824Z,30.82
2022-07-29T04:14:17.224Z,30.84
2022-07-29T04:14:46.905Z,30.84
2022-07-29T04:15:16.900Z,30.82
2022-07-29T04:15:46.941Z,30.82
2022-07-29T04:16:17.039Z,30.81
2022-07-29T04:16:46.939Z,30.79
2022-07-29T04:17:16.952Z,30.84
2022-07-29T04:17:46.943Z,30.84
2022-07-29T04:18:16.951Z,30.82
2022-07-29T04:18:46.944Z,30.82
2022-07-29T04:19:17.065Z,30.79
2022-07-29T04:19:47.057Z,30.82
2022-07-29T04:20:17.067Z,30.82
2022-07-29T04:20:47.176Z,30.79
2022-07-29T04:21:17.174Z,30.78
2022-07-29T04:21:47.172Z,30.81
2022-07-29T04:22:17.306Z,30.79
2022-07-29T04:22:47.304Z,30.79
2022-07-29T04:23:17.302Z,30.78
2022-07-29T04:23:53.172Z,30.79
2022-07-29T04:24:18.025Z,30.79
2022-07-29T04:24:47.391Z,30.79
2022-07-29T04:25:17.510Z,30.78
2022-07-29T04:25:47.627Z,30.78
2022-07-29T04:26:17.625Z,30.79
2022-07-29T04:26:47.619Z,30.78
2022-07-29T04:27:17.754Z,30.79
2022-07-29T04:27:47.748Z,30.77
2022-07-29T04:28:17.744Z,30.84
2022-07-29T04:28:47.858Z,30.81
2022-07-29T04:29:17.861Z,30.78
2022-07-29T04:29:56.099Z,30.82
2022-07-29T04:30:18.095Z,30.78
2022-07-29T04:30:48.245Z,30.78
2022-07-29T04:31:21.282Z,30.81
2022-07-29T04:31:48.548Z,30.79
2022-07-29T04:32:18.415Z,30.79
2022-07-29T04:32:48.497Z,30.78
2022-07-29T04:33:18.582Z,30.78
2022-07-29T04:33:48.665Z,30.78
2022-07-29T04:34:19.458Z,30.78
2022-07-29T04:34:48.766Z,30.79
2022-07-29T04:35:18.852Z,30.78
2022-07-29T04:35:50.383Z,30.78
2022-07-29T04:36:28.739Z,30.77
2022-07-29T04:36:49.157Z,30.79
2022-07-29T04:37:19.243Z,30.77
2022-07-29T04:37:49.322Z,30.78
2022-07-29T04:38:19.403Z,30.78
2022-07-29T04:38:49.486Z,30.81
2022-07-29T04:39:23.072Z,30.81
2022-07-29T04:39:49.639Z,30.77
2022-07-29T04:40:19.751Z,30.77
2022-07-29T04:40:49.992Z,30.78
2022-07-29T04:41:20.823Z,30.78
2022-07-29T04:41:49.845Z,30.78
2022-07-29T04:42:19.889Z,30.78
2022-07-29T04:42:49.908Z,30.79
2022-07-29T04:43:22.759Z,30.77
2022-07-29T04:43:50.013Z,30.78
2022-07-29T04:44:20.169Z,30.77
2022-07-29T04:44:50.131Z,30.75
2022-07-29T04:45:22.613Z,30.75
2022-07-29T04:45:50.342Z,30.77
2022-07-29T04:46:20.393Z,30.78
2022-07-29T04:46:50.423Z,30.75
2022-07-29T04:47:20.415Z,30.78
2022-07-29T04:47:50.411Z,30.75
2022-07-29T04:48:23.990Z,30.74
2022-07-29T04:48:50.493Z,30.67
2022-07-29T04:49:20.515Z,30.66
2022-07-29T04:49:50.471Z,30.24
2022-07-29T04:50:20.463Z,30.06
2022-07-29T04:50:50.468Z,30.27
2022-07-29T04:51:20.589Z,30.31
2022-07-29T04:51:50.703Z,30.31
2022-07-29T04:52:20.828Z,30.27
2022-07-29T04:52:50.829Z,30.24
2022-07-29T04:53:20.944Z,29.96
2022-07-29T04:53:50.935Z,29.95
2022-07-29T04:54:21.055Z,30.05
2022-07-29T04:54:51.165Z,29.92
2022-07-29T04:55:21.167Z,30.05
2022-07-29T04:55:51.285Z,29.95
2022-07-29T04:56:21.278Z,29.95
2022-07-29T04:56:51.395Z,29.98
2022-07-29T04:57:21.401Z,29.84
2022-07-29T04:57:51.400Z,29.84
2022-07-29T04:58:21.516Z,29.81
2022-07-29T04:58:51.536Z,29.67
2022-07-29T04:59:21.637Z,29.74
2022-07-29T04:59:51.755Z,29.68
2022-07-29T05:00:21.752Z,29.53
2022-07-29T05:00:51.766Z,29.54
2022-07-29T05:01:21.838Z,29.56
2022-07-29T05:01:51.967Z,29.50
2022-07-29T05:02:21.917Z,29.49
2022-07-29T05:02:52.037Z,29.28
2022-07-29T05:03:21.935Z,29.40
2022-07-29T05:03:53.971Z,29.39
2022-07-29T05:04:22.087Z,29.44
2022-07-29T05:04:52.067Z,29.39
2022-07-29T05:05:22.185Z,29.02
2022-07-29T05:05:52.187Z,29.12
2022-07-29T05:06:22.186Z,29.16
2022-07-29T05:06:52.296Z,29.28
2022-07-29T05:07:22.302Z,29.28
2022-07-29T05:07:52.301Z,29.21
2022-07-29T05:08:22.420Z,29.36
2022-07-29T05:08:52.420Z,29.37
2022-07-29T05:09:22.415Z,29.46
2022-07-29T05:09:52.537Z,29.51
2022-07-29T05:10:22.535Z,29.49
2022-07-29T05:10:52.533Z,29.25
2022-07-29T05:11:27.234Z,29.46
2022-07-29T05:11:52.667Z,29.10
2022-07-29T05:12:22.665Z,29.28
2022-07-29T05:12:52.659Z,29.22
2022-07-29T05:13:22.657Z,29.34
2022-07-29T05:13:52.654Z,28.96
2022-07-29T05:14:22.773Z,29.17
2022-07-29T05:14:52.860Z,29.22
2022-07-29T05:15:22.859Z,29.28
2022-07-29T05:15:53.074Z,29.30
2022-07-29T05:16:23.132Z,29.06
2022-07-29T05:16:53.137Z,29.13
2022-07-29T05:17:23.132Z,29.17
2022-07-29T05:17:53.121Z,29.26
2022-07-29T05:18:26.203Z,29.25
2022-07-29T05:18:53.183Z,28.95
2022-07-29T05:19:23.180Z,29.14
2022-07-29T05:19:53.188Z,29.29
2022-07-29T05:20:23.183Z,29.22
2022-07-29T05:20:53.297Z,29.21
2022-07-29T05:21:23.297Z,29.19
2022-07-29T05:21:53.295Z,29.26
2022-07-29T05:22:23.415Z,29.22
2022-07-29T05:22:53.412Z,29.10
2022-07-29T05:23:23.409Z,29.25
2022-07-29T05:23:53.526Z,29.02
2022-07-29T05:24:23.647Z,29.02
2022-07-29T05:24:53.641Z,29.07
2022-07-29T05:25:23.759Z,29.21
2022-07-29T05:25:53.776Z,29.07
2022-07-29T05:26:23.770Z,29.06
2022-07-29T05:26:53.885Z,29.16
2022-07-29T05:27:23.888Z,29.23
2022-07-29T05:27:53.884Z,29.23
2022-07-29T05:28:24.005Z,29.25
2022-07-29T05:28:54.120Z,29.33
2022-07-29T05:29:44.964Z,29.34
2022-07-29T05:29:54.152Z,29.39
2022-07-29T05:30:24.226Z,29.41
2022-07-29T05:30:54.367Z,29.46
2022-07-29T05:31:24.337Z,29.46
2022-07-29T05:31:54.397Z,29.50
2022-07-29T05:32:24.485Z,29.53
2022-07-29T05:32:54.570Z,29.39
2022-07-29T05:33:35.865Z,29.30
2022-07-29T05:33:54.771Z,29.40
2022-07-29T05:34:24.859Z,29.46
2022-07-29T05:34:54.934Z,29.47
2022-07-29T05:35:25.018Z,29.16
2022-07-29T05:35:59.939Z,29.13
2022-07-29T05:36:25.217Z,29.17
2022-07-29T05:36:55.291Z,29.21
2022-07-29T05:37:25.387Z,29.30
2022-07-29T05:37:55.470Z,29.02
2022-07-29T05:38:25.553Z,29.02
2022-07-29T05:38:55.638Z,28.73
2022-07-29T05:39:47.207Z,28.73
2022-07-29T05:39:57.120Z,28.94
2022-07-29T05:40:25.859Z,28.74
2022-07-29T05:40:55.852Z,28.98
2022-07-29T05:41:25.853Z,28.85
2022-07-29T05:41:55.848Z,29.03
2022-07-29T05:42:25.913Z,29.14
2022-07-29T05:42:55.887Z,29.17
2022-07-29T05:43:26.007Z,29.22
2022-07-29T05:43:56.129Z,29.33
2022-07-29T05:44:26.246Z,29.34
2022-07-29T05:44:56.240Z,29.03
2022-07-29T05:45:26.246Z,29.03
2022-07-29T05:45:56.413Z,28.85
2022-07-29T05:46:26.562Z,29.02
2022-07-29T05:46:56.557Z,28.74
2022-07-29T05:47:26.563Z,28.84
2022-07-29T05:47:56.569Z,28.94
2022-07-29T05:48:26.594Z,29.03
2022-07-29T05:48:56.625Z,29.03
2022-07-29T05:49:27.330Z,28.99
2022-07-29T05:49:56.664Z,29.03
2022-07-29T05:50:26.790Z,28.95
2022-07-29T05:50:56.795Z,28.92
2022-07-29T05:51:26.790Z,28.99
2022-07-29T05:51:56.784Z,28.89
2022-07-29T05:52:26.792Z,28.96
2022-07-29T05:52:56.795Z,29.01
2022-07-29T05:53:26.807Z,28.92
2022-07-29T05:53:56.798Z,28.91
2022-07-29T05:54:26.796Z,28.84
2022-07-29T05:54:56.791Z,29.05
2022-07-29T05:55:26.930Z,29.01
2022-07-29T05:55:56.938Z,28.92
2022-07-29T05:56:26.930Z,29.01
2022-07-29T05:56:57.049Z,28.89
2022-07-29T05:57:27.047Z,28.89
2022-07-29T05:57:57.040Z,29.06
2022-07-29T05:58:27.038Z,29.16
2022-07-29T05:58:57.035Z,29.17
2022-07-29T05:59:30.478Z,29.07
2022-07-29T05:59:57.168Z,29.14
2022-07-29T06:00:27.161Z,29.26
2022-07-29T06:00:57.182Z,29.16
2022-07-29T06:01:27.259Z,28.95
2022-07-29T06:01:57.282Z,28.95
2022-07-29T06:02:27.278Z,28.88
2022-07-29T06:02:57.278Z,29.06
2022-07-29T06:03:27.392Z,29.10
2022-07-29T06:03:57.487Z,29.10
2022-07-29T06:04:27.514Z,29.05
2022-07-29T06:04:57.539Z,28.95
2022-07-29T06:05:27.529Z,28.84
2022-07-29T06:05:57.538Z,28.88
2022-07-29T06:06:27.528Z,28.92
2022-07-29T06:06:57.546Z,28.33
2022-07-29T06:07:27.545Z,28.23
2022-07-29T06:07:57.542Z,28.23
2022-07-29T06:08:27.534Z,28.44
2022-07-29T06:08:57.657Z,28.44
2022-07-29T06:09:29.241Z,28.57
2022-07-29T06:09:57.687Z,28.68
2022-07-29T06:10:27.686Z,28.71
2022-07-29T06:10:57.804Z,28.81
2022-07-29T06:11:27.794Z,28.63
2022-07-29T06:11:57.806Z,28.74
2022-07-29T06:12:27.797Z,28.84
2022-07-29T06:12:57.796Z,28.88
2022-07-29T06:13:27.794Z,28.81
2022-07-29T06:13:57.789Z,28.84
2022-07-29T06:14:27.792Z,28.81
2022-07-29T06:14:57.793Z,28.94
2022-07-29T06:15:27.909Z,29.02
2022-07-29T06:15:57.994Z,29.05
2022-07-29T06:16:30.169Z,29.14
2022-07-29T06:16:58.023Z,29.21
2022-07-29T06:17:28.020Z,29.16
2022-07-29T06:17:59.340Z,29.14
2022-07-29T06:18:28.073Z,29.22
2022-07-29T06:18:58.078Z,29.29
2022-07-29T06:19:28.072Z,29.30
2022-07-29T06:19:58.191Z,29.34
2022-07-29T06:20:28.308Z,29.36
2022-07-29T06:20:58.305Z,29.40
2022-07-29T06:21:28.310Z,29.25
2022-07-29T06:21:58.302Z,29.30
2022-07-29T06:22:28.315Z,29.40
2022-07-29T06:22:58.326Z,29.43
2022-07-29T06:23:28.435Z,29.49
2022-07-29T06:23:58.436Z,29.51
2022-07-29T06:24:28.443Z,29.54
2022-07-29T06:24:58.573Z,29.56
2022-07-29T06:25:28.578Z,29.56
2022-07-29T06:25:58.697Z,29.60
2022-07-29T06:26:31.483Z,29.61
2022-07-29T06:26:58.785Z,29.63